Time;durP1;ratioP1;P1;durP2;ratioP2;P2;SDS_P1;SDS_P2;PMS_P1;PMS_P2;Temp;Humidity;BMP_temperature;BMP_pressure;BME280_temperature;BME280_humidity;BME280_pressure;Samples;Min_cycle;Max_cycle;Signal;HPM_P1;HPM_P2
2023/09/01 00:00:24;;;;;;;3.15;2.17;;;;;;;;;;5004124;28;20045;-60
2023/09/01 00:03:04;;;;;;;3.30;2.20;;;;;;;;;;5013702;28;20034;-60
2023/09/01 00:05:34;;;;;;;3.53;1.90;;;;;;;;;;4993456;28;20057;-60
2023/09/01 00:08:00;;;;;;;4.45;1.83;;;;;;;;;;5010917;28;20497;-60
2023/09/01 00:10:26;;;;;;;3.35;1.80;;;;;;;;;;5013270;28;20038;-60
2023/09/01 00:12:52;;;;;;;3.10;1.80;;;;;;;;;;5016928;28;20856;-60
2023/09/01 00:15:18;;;;;;;4.82;1.80;;;;;;;;;;5008727;28;20049;-60
2023/09/01 00:17:44;;;;;;;2.95;1.95;;;;;;;;;;5007676;28;20401;-60
2023/09/01 00:20:10;;;;;;;3.97;1.90;;;;;;;;;;5006246;28;20041;-60
2023/09/01 00:22:37;;;;;;;5.10;1.98;;;;;;;;;;5018328;28;20034;-60
2023/09/01 00:25:03;;;;;;;4.32;2.22;;;;;;;;;;5015947;28;20049;-60
2023/09/01 00:27:29;;;;;;;4.68;1.90;;;;;;;;;;5012922;28;20033;-60
2023/09/01 00:29:55;;;;;;;3.75;2.00;;;;;;;;;;4995027;28;20072;-60
2023/09/01 00:32:21;;;;;;;8.27;2.55;;;;;;;;;;4998135;28;20052;-60
2023/09/01 00:34:55;;;;;;;6.85;2.25;;;;;;;;;;4999795;28;20033;-60
2023/09/01 00:37:22;;;;;;;5.32;1.83;;;;;;;;;;5010063;28;20057;-60
2023/09/01 00:39:48;;;;;;;4.38;2.05;;;;;;;;;;5015800;28;20041;-60
2023/09/01 00:42:14;;;;;;;2.42;1.85;;;;;;;;;;5013199;28;20030;-60
2023/09/01 00:44:40;;;;;;;6.88;2.47;;;;;;;;;;5007043;28;20392;-60
2023/09/01 00:47:07;;;;;;;5.10;1.77;;;;;;;;;;4990340;28;20026;-60
2023/09/01 00:49:35;;;;;;;5.18;1.85;;;;;;;;;;4991561;28;20033;-60
2023/09/01 00:52:02;;;;;;;6.30;1.88;;;;;;;;;;5011269;28;20030;-60
2023/09/01 00:54:28;;;;;;;3.78;1.80;;;;;;;;;;5009435;28;20517;-60
2023/09/01 00:56:54;;;;;;;5.47;2.00;;;;;;;;;;4976737;28;20038;-60
2023/09/01 00:59:21;;;;;;;9.57;1.88;;;;;;;;;;4991517;28;20418;-60
2023/09/01 01:01:48;;;;;;;3.47;1.92;;;;;;;;;;5005770;28;20413;-60
2023/09/01 01:04:15;;;;;;;3.63;2.13;;;;;;;;;;5002174;28;20029;-60
2023/09/01 01:07:25;;;;;;;3.67;2.03;;;;;;;;;;5007014;28;20401;-60
2023/09/01 01:10:06;;;;;;;2.97;2.00;;;;;;;;;;4938060;28;20814;-60
2023/09/01 01:12:49;;;;;;;5.78;2.10;;;;;;;;;;4939871;28;20059;-60
2023/09/01 01:15:15;;;;;;;3.28;1.90;;;;;;;;;;4984568;28;20050;-60
2023/09/01 01:17:49;;;;;;;5.00;1.90;;;;;;;;;;5014913;28;20034;-60
2023/09/01 01:20:18;;;;;;;6.88;2.50;;;;;;;;;;4993265;28;20034;-60
2023/09/01 01:22:48;;;;;;;2.55;1.65;;;;;;;;;;4995906;28;20042;-60
2023/09/01 01:25:15;;;;;;;5.32;2.10;;;;;;;;;;5013911;28;20408;-60
2023/09/01 01:27:42;;;;;;;4.18;1.58;;;;;;;;;;4987417;28;20026;-60
2023/09/01 01:30:13;;;;;;;3.35;1.98;;;;;;;;;;5014538;28;20037;-60
2023/09/01 01:32:41;;;;;;;8.43;1.77;;;;;;;;;;5010659;28;20405;-60
2023/09/01 01:35:19;;;;;;;3.38;1.67;;;;;;;;;;4996102;28;20045;-60
2023/09/01 01:37:48;;;;;;;3.33;2.10;;;;;;;;;;4997705;28;20045;-60
2023/09/01 01:40:15;;;;;;;4.75;1.90;;;;;;;;;;5008281;28;20405;-60
2023/09/01 01:42:46;;;;;;;5.22;1.65;;;;;;;;;;5009151;28;20041;-60
2023/09/01 01:45:16;;;;;;;5.30;2.00;;;;;;;;;;5009945;28;20390;-60
2023/09/01 01:47:43;;;;;;;4.93;2.00;;;;;;;;;;4992648;28;20029;-59
2023/09/01 01:50:09;;;;;;;2.95;1.33;;;;;;;;;;5002514;28;20049;-60
2023/09/01 01:52:36;;;;;;;4.68;1.70;;;;;;;;;;4991654;28;20038;-60
2023/09/01 01:55:02;;;;;;;3.80;1.65;;;;;;;;;;5010958;28;20033;-60
2023/09/01 01:57:28;;;;;;;2.47;1.73;;;;;;;;;;4991304;28;20045;-60
2023/09/01 01:59:54;;;;;;;5.38;2.22;;;;;;;;;;4990887;28;20429;-60
2023/09/01 02:02:20;;;;;;;3.40;1.80;;;;;;;;;;4990050;28;20042;-60
2023/09/01 02:04:47;;;;;;;5.00;1.75;;;;;;;;;;5012433;28;20045;-60
2023/09/01 02:07:13;;;;;;;4.28;1.85;;;;;;;;;;5006926;28;20050;-60
2023/09/01 02:09:39;;;;;;;5.35;1.83;;;;;;;;;;4988773;28;20045;-60
2023/09/01 02:12:06;;;;;;;5.13;1.63;;;;;;;;;;4987079;28;20046;-60
2023/09/01 02:14:36;;;;;;;4.88;1.95;;;;;;;;;;5006782;28;20045;-60
2023/09/01 02:17:06;;;;;;;4.07;2.20;;;;;;;;;;4993663;28;20049;-60
2023/09/01 02:19:36;;;;;;;3.92;1.83;;;;;;;;;;4992887;28;20037;-60
2023/09/01 02:22:05;;;;;;;3.50;1.80;;;;;;;;;;5002161;28;20046;-60
2023/09/01 02:24:32;;;;;;;2.45;1.75;;;;;;;;;;5009146;28;20038;-60
2023/09/01 02:26:58;;;;;;;3.92;1.50;;;;;;;;;;5016267;28;20049;-60
2023/09/01 02:29:24;;;;;;;4.55;1.48;;;;;;;;;;4982348;28;20053;-60
2023/09/01 02:31:53;;;;;;;4.60;1.60;;;;;;;;;;5009400;28;20034;-60
2023/09/01 02:34:19;;;;;;;3.92;1.65;;;;;;;;;;5013900;28;20557;-59
2023/09/01 02:36:45;;;;;;;3.05;1.50;;;;;;;;;;5014423;28;20048;-60
2023/09/01 02:39:11;;;;;;;6.88;1.73;;;;;;;;;;4992898;28;20038;-60
2023/09/01 02:41:37;;;;;;;3.05;1.50;;;;;;;;;;5005967;28;20045;-60
2023/09/01 02:44:04;;;;;;;3.17;1.67;;;;;;;;;;4987994;28;20049;-60
2023/09/01 02:46:30;;;;;;;2.75;1.60;;;;;;;;;;5005267;28;20030;-60
2023/09/01 02:48:56;;;;;;;3.17;1.58;;;;;;;;;;5004414;28;20050;-60
2023/09/01 02:51:24;;;;;;;7.43;1.60;;;;;;;;;;4989091;28;20050;-60
2023/09/01 02:53:50;;;;;;;3.95;1.92;;;;;;;;;;4992396;28;20509;-59
2023/09/01 02:56:17;;;;;;;5.45;1.83;;;;;;;;;;4989952;28;20046;-59
2023/09/01 02:58:43;;;;;;;2.90;1.60;;;;;;;;;;4985452;28;20030;-60
2023/09/01 03:01:10;;;;;;;5.35;1.77;;;;;;;;;;5008886;28;20037;-60
2023/09/01 03:03:40;;;;;;;3.53;1.67;;;;;;;;;;4992049;28;20033;-60
2023/09/01 03:06:08;;;;;;;4.85;1.73;;;;;;;;;;4991445;28;20033;-60
2023/09/01 03:08:38;;;;;;;5.93;1.52;;;;;;;;;;4993349;28;20358;-59
2023/09/01 03:11:05;;;;;;;4.82;1.42;;;;;;;;;;4992682;28;20053;-60
2023/09/01 03:13:32;;;;;;;4.00;1.40;;;;;;;;;;4993973;28;20044;-59
2023/09/01 03:15:58;;;;;;;3.35;1.42;;;;;;;;;;4979480;28;20062;-60
2023/09/01 03:18:24;;;;;;;10.65;1.98;;;;;;;;;;4993794;28;20049;-60
2023/09/01 03:20:55;;;;;;;3.10;1.30;;;;;;;;;;5013469;28;20457;-60
2023/09/01 03:23:21;;;;;;;2.67;1.30;;;;;;;;;;5012578;28;20637;-60
2023/09/01 03:25:55;;;;;;;2.75;1.40;;;;;;;;;;5018152;28;20053;-60
2023/09/01 03:28:23;;;;;;;3.58;1.45;;;;;;;;;;4994937;28;20046;-61
2023/09/01 03:30:49;;;;;;;3.30;1.20;;;;;;;;;;4979139;28;20447;-59
2023/09/01 03:33:16;;;;;;;2.65;1.40;;;;;;;;;;4981644;28;20053;-60
2023/09/01 03:35:42;;;;;;;3.78;1.10;;;;;;;;;;5017885;28;20045;-60
2023/09/01 03:38:08;;;;;;;3.47;0.93;;;;;;;;;;5009635;28;20424;-60
2023/09/01 03:40:38;;;;;;;5.18;1.20;;;;;;;;;;5008280;28;20050;-60
2023/09/01 03:43:06;;;;;;;3.42;1.17;;;;;;;;;;4991287;28;20041;-60
2023/09/01 03:45:32;;;;;;;2.88;1.30;;;;;;;;;;4989402;28;20035;-59
2023/09/01 03:47:58;;;;;;;2.10;1.30;;;;;;;;;;5008792;28;20037;-60
2023/09/01 03:50:24;;;;;;;2.13;1.05;;;;;;;;;;4992408;28;20036;-61
2023/09/01 03:52:50;;;;;;;1.55;1.00;;;;;;;;;;4995477;28;20050;-60
2023/09/01 03:55:17;;;;;;;2.63;1.70;;;;;;;;;;5013296;28;20038;-61
2023/09/01 03:57:43;;;;;;;2.80;0.80;;;;;;;;;;4995177;28;20038;-59
2023/09/01 04:00:11;;;;;;;2.67;1.10;;;;;;;;;;5011526;28;20049;-60
2023/09/01 04:02:40;;;;;;;1.63;0.95;;;;;;;;;;5014285;28;20108;-61
2023/09/01 04:05:06;;;;;;;1.95;1.00;;;;;;;;;;4981599;28;20481;-61
2023/09/01 04:07:32;;;;;;;1.33;0.90;;;;;;;;;;5008689;28;20049;-60
2023/09/01 04:09:58;;;;;;;2.70;0.70;;;;;;;;;;5014199;28;20041;-60
2023/09/01 04:12:25;;;;;;;1.42;0.80;;;;;;;;;;5013297;28;20034;-58
2023/09/01 04:14:51;;;;;;;3.75;0.93;;;;;;;;;;5000033;28;20125;-59
2023/09/01 04:17:17;;;;;;;2.80;1.48;;;;;;;;;;5005961;28;20060;-60
2023/09/01 04:19:47;;;;;;;1.02;0.75;;;;;;;;;;5011296;28;20037;-60
2023/09/01 04:22:14;;;;;;;1.55;0.70;;;;;;;;;;4998264;28;20532;-60
2023/09/01 04:24:40;;;;;;;1.23;0.80;;;;;;;;;;5010731;28;20041;-60
2023/09/01 04:27:07;;;;;;;1.75;0.85;;;;;;;;;;5017482;28;20039;-59
2023/09/01 04:29:33;;;;;;;3.63;0.95;;;;;;;;;;4996022;28;20053;-60
2023/09/01 04:32:00;;;;;;;2.65;0.90;;;;;;;;;;4999198;28;20071;-60
2023/09/01 04:34:26;;;;;;;2.03;0.80;;;;;;;;;;5003684;28;20029;-60
2023/09/01 04:36:55;;;;;;;2.40;0.90;;;;;;;;;;5003953;28;20041;-60
2023/09/01 04:39:21;;;;;;;2.55;1.10;;;;;;;;;;4989834;28;20035;-60
2023/09/01 04:41:47;;;;;;;1.50;0.90;;;;;;;;;;4993917;28;20034;-60
2023/09/01 04:44:14;;;;;;;2.08;0.80;;;;;;;;;;5009006;28;20037;-60
2023/09/01 04:46:40;;;;;;;4.97;0.82;;;;;;;;;;4993777;28;20021;-60
2023/09/01 04:49:06;;;;;;;3.13;1.00;;;;;;;;;;4991886;28;20034;-60
2023/09/01 04:51:33;;;;;;;2.25;1.00;;;;;;;;;;4994227;28;20053;-60
2023/09/01 04:53:59;;;;;;;2.92;0.90;;;;;;;;;;4996116;28;20042;-60
2023/09/01 04:56:25;;;;;;;2.13;1.00;;;;;;;;;;5010473;28;20042;-60
2023/09/01 04:58:51;;;;;;;1.63;1.00;;;;;;;;;;4991884;28;20033;-60
2023/09/01 05:01:17;;;;;;;1.17;0.90;;;;;;;;;;4994881;28;20560;-59
2023/09/01 05:03:43;;;;;;;1.08;0.80;;;;;;;;;;4997218;28;20040;-60
2023/09/01 05:06:10;;;;;;;2.22;1.10;;;;;;;;;;5014214;28;20648;-60
2023/09/01 05:08:37;;;;;;;2.53;1.15;;;;;;;;;;4979138;28;20494;-60
2023/09/01 05:11:03;;;;;;;1.73;0.90;;;;;;;;;;4994377;28;20410;-59
2023/09/01 05:13:29;;;;;;;3.10;1.30;;;;;;;;;;4993647;28;20026;-60
2023/09/01 05:15:55;;;;;;;1.05;0.88;;;;;;;;;;5010031;28;20408;-59
2023/09/01 05:18:21;;;;;;;1.80;0.80;;;;;;;;;;4993493;28;20054;-59
2023/09/01 05:20:50;;;;;;;1.77;0.80;;;;;;;;;;4998004;28;20026;-59
2023/09/01 05:23:16;;;;;;;3.65;1.27;;;;;;;;;;4997981;28;20037;-59
2023/09/01 05:25:42;;;;;;;4.57;1.20;;;;;;;;;;5013994;28;20037;-59
2023/09/01 05:28:09;;;;;;;5.78;1.30;;;;;;;;;;4981129;28;20037;-61
2023/09/01 05:30:37;;;;;;;3.20;1.00;;;;;;;;;;4996265;28;20086;-61
2023/09/01 05:33:04;;;;;;;1.65;1.00;;;;;;;;;;4990663;28;20063;-61
2023/09/01 05:35:30;;;;;;;5.28;1.33;;;;;;;;;;4986689;28;20044;-60
2023/09/01 05:37:56;;;;;;;4.03;1.60;;;;;;;;;;4993425;28;20056;-61
2023/09/01 05:40:23;;;;;;;2.17;1.25;;;;;;;;;;4992633;28;20382;-61
2023/09/01 05:42:49;;;;;;;2.00;1.27;;;;;;;;;;4976102;28;20045;-61
2023/09/01 05:45:15;;;;;;;2.33;1.20;;;;;;;;;;4992375;28;20525;-61
2023/09/01 05:47:43;;;;;;;2.30;1.10;;;;;;;;;;5006659;28;20040;-61
2023/09/01 05:50:09;;;;;;;3.42;1.42;;;;;;;;;;4989766;28;20050;-62
2023/09/01 05:52:35;;;;;;;1.58;1.15;;;;;;;;;;4993062;28;20037;-60
2023/09/01 05:55:01;;;;;;;1.90;1.10;;;;;;;;;;5012484;28;20412;-61
2023/09/01 05:57:27;;;;;;;3.42;1.20;;;;;;;;;;5012679;28;20050;-61
2023/09/01 05:59:53;;;;;;;2.08;1.30;;;;;;;;;;5009206;28;20081;-61
2023/09/01 06:02:19;;;;;;;1.65;1.20;;;;;;;;;;4994320;28;20416;-61
2023/09/01 06:04:46;;;;;;;2.05;1.10;;;;;;;;;;5014682;28;20049;-61
2023/09/01 06:07:12;;;;;;;2.90;1.25;;;;;;;;;;5007847;28;20045;-61
2023/09/01 06:09:38;;;;;;;1.58;1.10;;;;;;;;;;5006245;28;20398;-61
2023/09/01 06:12:04;;;;;;;2.30;1.20;;;;;;;;;;4994851;28;20448;-61
2023/09/01 06:14:31;;;;;;;2.22;0.93;;;;;;;;;;5011436;28;20489;-61
2023/09/01 06:16:57;;;;;;;1.83;1.10;;;;;;;;;;4995980;28;20045;-61
2023/09/01 06:19:23;;;;;;;2.20;1.00;;;;;;;;;;5002181;28;20391;-61
2023/09/01 06:21:49;;;;;;;3.63;1.40;;;;;;;;;;5011788;28;20034;-61
2023/09/01 06:24:15;;;;;;;2.08;1.08;;;;;;;;;;5014698;28;20049;-61
2023/09/01 06:26:41;;;;;;;1.55;1.20;;;;;;;;;;5018367;28;20049;-60
2023/09/01 06:29:07;;;;;;;2.08;1.20;;;;;;;;;;5015338;28;20045;-60
2023/09/01 06:31:34;;;;;;;3.58;1.48;;;;;;;;;;5006974;28;20057;-61
2023/09/01 06:34:01;;;;;;;4.20;1.33;;;;;;;;;;5008493;28;20026;-61
2023/09/01 06:36:27;;;;;;;2.35;1.40;;;;;;;;;;5015796;28;20501;-60
2023/09/01 06:38:53;;;;;;;1.80;1.30;;;;;;;;;;5000796;28;20053;-61
2023/09/01 06:41:19;;;;;;;3.55;1.00;;;;;;;;;;4989681;28;20037;-60
2023/09/01 06:43:45;;;;;;;5.13;1.23;;;;;;;;;;5008509;28;20037;-60
2023/09/01 06:46:11;;;;;;;3.65;1.40;;;;;;;;;;5009312;28;20400;-60
2023/09/01 06:48:37;;;;;;;1.58;1.05;;;;;;;;;;5008958;28;20030;-61
2023/09/01 06:51:03;;;;;;;1.70;1.33;;;;;;;;;;5009710;28;20034;-61
2023/09/01 06:53:30;;;;;;;1.83;1.10;;;;;;;;;;5000995;28;20053;-61
2023/09/01 06:55:56;;;;;;;1.40;0.85;;;;;;;;;;5010856;28;20037;-60
2023/09/01 06:58:22;;;;;;;3.83;1.20;;;;;;;;;;5005411;28;20026;-60
2023/09/01 07:00:51;;;;;;;2.95;1.20;;;;;;;;;;5003375;28;20522;-60
2023/09/01 07:03:19;;;;;;;2.78;1.30;;;;;;;;;;5011130;28;20045;-60
2023/09/01 07:05:55;;;;;;;2.83;1.30;;;;;;;;;;5011073;28;20033;-61
2023/09/01 07:08:21;;;;;;;3.47;1.10;;;;;;;;;;5004745;28;20046;-60
2023/09/01 07:10:48;;;;;;;1.83;0.80;;;;;;;;;;5009043;28;20030;-60
2023/09/01 07:13:14;;;;;;;1.75;1.35;;;;;;;;;;5005387;28;20408;-60
2023/09/01 07:15:40;;;;;;;1.98;0.98;;;;;;;;;;4998545;28;20044;-60
2023/09/01 07:18:06;;;;;;;3.25;1.00;;;;;;;;;;4996250;28;20117;-60
2023/09/01 07:20:32;;;;;;;1.48;1.05;;;;;;;;;;5009274;28;20050;-60
2023/09/01 07:22:58;;;;;;;4.10;1.20;;;;;;;;;;5015794;28;20053;-60
2023/09/01 07:25:24;;;;;;;1.52;1.08;;;;;;;;;;5014895;28;20045;-60
2023/09/01 07:27:50;;;;;;;1.90;1.10;;;;;;;;;;4997678;28;20534;-60
2023/09/01 07:30:17;;;;;;;2.30;1.20;;;;;;;;;;5018249;28;20049;-59
2023/09/01 07:32:43;;;;;;;3.25;1.10;;;;;;;;;;5018755;28;20042;-60
2023/09/01 07:35:09;;;;;;;1.52;1.02;;;;;;;;;;5000218;28;20038;-59
2023/09/01 07:37:35;;;;;;;2.60;0.98;;;;;;;;;;5006565;28;20045;-60
2023/09/01 07:40:03;;;;;;;1.95;1.30;;;;;;;;;;5003232;28;20038;-60
2023/09/01 07:42:30;;;;;;;1.52;1.05;;;;;;;;;;5012109;28;20072;-59
2023/09/01 07:44:56;;;;;;;3.08;1.10;;;;;;;;;;5010330;28;20540;-60
2023/09/01 07:47:22;;;;;;;1.58;1.10;;;;;;;;;;5013086;28;20057;-59
2023/09/01 07:49:48;;;;;;;2.08;1.10;;;;;;;;;;4991942;28;20413;-60
2023/09/01 07:52:14;;;;;;;3.45;1.40;;;;;;;;;;5011112;28;20053;-60
2023/09/01 07:54:42;;;;;;;1.92;1.02;;;;;;;;;;5007214;28;20050;-60
2023/09/01 07:57:08;;;;;;;2.30;1.10;;;;;;;;;;5014602;28;20481;-60
2023/09/01 07:59:35;;;;;;;4.03;1.30;;;;;;;;;;5006799;28;20053;-61
2023/09/01 08:02:01;;;;;;;3.78;1.20;;;;;;;;;;5011631;28;20054;-61
2023/09/01 08:04:27;;;;;;;4.35;1.20;;;;;;;;;;5007919;28;20029;-60
2023/09/01 08:06:53;;;;;;;2.97;1.17;;;;;;;;;;5008388;28;20037;-61
2023/09/01 08:09:19;;;;;;;2.13;1.30;;;;;;;;;;5006032;28;20065;-61
2023/09/01 08:11:45;;;;;;;2.67;1.13;;;;;;;;;;5013921;28;20041;-61
2023/09/01 08:14:11;;;;;;;2.05;1.25;;;;;;;;;;5013956;28;20041;-61
2023/09/01 08:16:37;;;;;;;3.22;1.10;;;;;;;;;;5018905;28;20060;-61
2023/09/01 08:19:04;;;;;;;2.00;1.20;;;;;;;;;;5017166;28;20056;-60
2023/09/01 08:21:31;;;;;;;2.00;1.25;;;;;;;;;;5016573;28;20029;-60
2023/09/01 08:23:57;;;;;;;1.98;1.05;;;;;;;;;;5009455;28;20113;-60
2023/09/01 08:26:23;;;;;;;2.25;1.10;;;;;;;;;;5018476;28;20045;-60
2023/09/01 08:28:49;;;;;;;2.53;1.23;;;;;;;;;;5018755;28;20044;-61
2023/09/01 08:31:15;;;;;;;2.83;1.10;;;;;;;;;;5016814;28;20053;-60
2023/09/01 08:33:41;;;;;;;1.73;1.15;;;;;;;;;;5014577;28;20030;-61
2023/09/01 08:36:08;;;;;;;3.50;1.15;;;;;;;;;;5010131;28;20034;-60
2023/09/01 08:38:35;;;;;;;2.00;1.17;;;;;;;;;;5003868;28;20042;-60
2023/09/01 08:41:03;;;;;;;2.78;1.30;;;;;;;;;;4993526;28;20038;-60
2023/09/01 08:43:35;;;;;;;6.43;1.37;;;;;;;;;;5001796;28;20034;-60
2023/09/01 08:46:05;;;;;;;3.85;1.27;;;;;;;;;;5011872;28;20121;-60
2023/09/01 08:48:32;;;;;;;3.55;1.50;;;;;;;;;;5006964;28;20502;-61
2023/09/01 08:50:59;;;;;;;1.77;1.20;;;;;;;;;;5012308;28;20041;-61
2023/09/01 08:53:25;;;;;;;2.17;1.35;;;;;;;;;;5012715;28;20085;-61
2023/09/01 08:55:52;;;;;;;3.70;1.27;;;;;;;;;;5014836;28;20046;-61
2023/09/01 08:58:19;;;;;;;1.70;1.20;;;;;;;;;;5006318;28;20037;-60
2023/09/01 09:00:45;;;;;;;4.88;2.00;;;;;;;;;;5007788;28;20046;-60
2023/09/01 09:03:12;;;;;;;4.80;1.40;;;;;;;;;;5012735;28;20068;-61
2023/09/01 09:05:38;;;;;;;2.38;1.35;;;;;;;;;;5012108;28;20054;-61
2023/09/01 09:08:06;;;;;;;3.67;1.40;;;;;;;;;;5011126;28;20041;-61
2023/09/01 09:10:36;;;;;;;3.17;1.37;;;;;;;;;;5009555;28;20375;-61
2023/09/01 09:13:30;;;;;;;2.38;1.45;;;;;;;;;;5005766;28;20038;-61
2023/09/01 09:16:13;;;;;;;3.42;1.50;;;;;;;;;;5007578;28;20052;-61
2023/09/01 09:18:41;;;;;;;3.38;1.50;;;;;;;;;;5010747;28;20037;-61
2023/09/01 09:21:29;;;;;;;2.42;1.48;;;;;;;;;;4998191;28;20030;-61
2023/09/01 09:24:05;;;;;;;2.58;1.27;;;;;;;;;;5016114;28;20048;-60
2023/09/01 09:26:31;;;;;;;3.22;1.40;;;;;;;;;;4995805;28;20026;-60
2023/09/01 09:29:11;;;;;;;6.85;1.60;;;;;;;;;;5009306;28;20045;-61
2023/09/01 09:31:44;;;;;;;5.75;1.70;;;;;;;;;;5015548;28;20412;-61
2023/09/01 09:34:17;;;;;;;6.10;1.50;;;;;;;;;;4992634;28;20042;-61
2023/09/01 09:36:47;;;;;;;5.88;1.63;;;;;;;;;;5001974;28;20055;-61
2023/09/01 09:39:24;;;;;;;3.65;1.50;;;;;;;;;;4990072;28;20046;-60
2023/09/01 09:41:50;;;;;;;4.55;1.85;;;;;;;;;;5002242;28;20034;-60
2023/09/01 09:44:25;;;;;;;4.15;1.60;;;;;;;;;;5006581;28;20042;-61
2023/09/01 09:46:53;;;;;;;6.20;1.63;;;;;;;;;;5009945;28;20036;-61
2023/09/01 09:49:21;;;;;;;4.20;1.70;;;;;;;;;;4992300;28;20057;-61
2023/09/01 09:51:52;;;;;;;2.40;1.63;;;;;;;;;;5010088;28;20049;-61
2023/09/01 09:54:22;;;;;;;4.30;1.73;;;;;;;;;;5008957;28;20501;-61
2023/09/01 09:56:50;;;;;;;2.67;1.75;;;;;;;;;;5013688;28;20525;-60
2023/09/01 09:59:48;;;;;;;3.20;1.42;;;;;;;;;;5009446;28;20046;-61
2023/09/01 10:02:25;;;;;;;3.15;1.60;;;;;;;;;;5011639;28;20056;-61
2023/09/01 10:04:53;;;;;;;1.98;1.08;;;;;;;;;;5006805;28;20049;-61
2023/09/01 10:07:20;;;;;;;2.30;1.23;;;;;;;;;;5012632;28;20034;-61
2023/09/01 10:09:47;;;;;;;4.18;1.80;;;;;;;;;;5010712;28;20041;-61
2023/09/01 10:12:14;;;;;;;3.72;1.85;;;;;;;;;;5012004;28;20041;-61
2023/09/01 10:14:42;;;;;;;3.00;1.63;;;;;;;;;;5015123;28;20053;-61
2023/09/01 10:17:11;;;;;;;2.40;1.50;;;;;;;;;;5015779;28;20489;-60
2023/09/01 10:19:38;;;;;;;8.05;1.88;;;;;;;;;;5008257;28;20419;-62
2023/09/01 10:22:04;;;;;;;2.13;1.60;;;;;;;;;;5009193;28;20421;-61
2023/09/01 10:24:30;;;;;;;5.97;1.40;;;;;;;;;;5015058;28;20087;-60
2023/09/01 10:27:15;;;;;;;3.80;1.38;;;;;;;;;;5018075;28;20030;-60
2023/09/01 10:29:41;;;;;;;2.22;1.23;;;;;;;;;;4994646;28;20034;-61
2023/09/01 10:32:16;;;;;;;2.25;1.35;;;;;;;;;;5011953;28;20033;-61
2023/09/01 10:34:53;;;;;;;3.08;1.75;;;;;;;;;;5003966;28;20030;-61
2023/09/01 10:37:32;;;;;;;3.30;1.63;;;;;;;;;;5001882;28;20037;-61
2023/09/01 10:39:58;;;;;;;4.25;1.50;;;;;;;;;;5005151;28;20046;-61
2023/09/01 10:42:48;;;;;;;2.10;1.33;;;;;;;;;;5006503;28;20410;-62
2023/09/01 10:45:14;;;;;;;3.13;1.45;;;;;;;;;;5006487;28;20077;-61
2023/09/01 10:47:41;;;;;;;5.38;1.90;;;;;;;;;;5009356;28;20045;-61
2023/09/01 10:50:07;;;;;;;2.75;1.45;;;;;;;;;;5000313;28;20029;-61
2023/09/01 10:52:34;;;;;;;2.58;1.55;;;;;;;;;;4993610;28;20041;-62
2023/09/01 10:55:00;;;;;;;4.75;1.67;;;;;;;;;;4993205;28;20034;-61
2023/09/01 10:57:40;;;;;;;2.08;1.23;;;;;;;;;;5003309;28;20037;-61
2023/09/01 11:00:31;;;;;;;3.38;1.63;;;;;;;;;;5004292;28;20037;-61
2023/09/01 11:03:25;;;;;;;4.25;1.60;;;;;;;;;;5004896;28;20053;-61
2023/09/01 11:05:56;;;;;;;3.88;1.40;;;;;;;;;;5016479;28;20038;-61
2023/09/01 11:08:24;;;;;;;1.90;1.35;;;;;;;;;;5012141;28;20075;-61
2023/09/01 11:10:55;;;;;;;3.53;1.20;;;;;;;;;;4996089;28;20405;-61
2023/09/01 11:13:25;;;;;;;2.50;1.30;;;;;;;;;;5000265;28;20042;-60
2023/09/01 11:15:51;;;;;;;;;;;;;;;;;;5000614;28;20036;-61
2023/09/01 11:18:22;;;;;;;4.78;1.50;;;;;;;;;;5009904;28;19936;-62
2023/09/01 11:20:53;;;;;;;3.08;1.40;;;;;;;;;;5011952;28;20045;-62
2023/09/01 11:23:20;;;;;;;3.65;1.33;;;;;;;;;;5015266;28;20516;-61
2023/09/01 11:25:59;;;;;;;2.40;1.40;;;;;;;;;;5018939;28;20404;-61
2023/09/01 11:28:27;;;;;;;4.10;1.38;;;;;;;;;;5010975;28;20031;-61
2023/09/01 11:30:59;;;;;;;4.65;1.40;;;;;;;;;;5015989;28;20037;-61
2023/09/01 11:33:26;;;;;;;2.35;1.50;;;;;;;;;;5002410;28;20038;-61
2023/09/01 11:36:11;;;;;;;8.57;2.08;;;;;;;;;;4998906;28;20247;-61
2023/09/01 11:38:39;;;;;;;1.60;1.42;;;;;;;;;;5003593;28;20509;-62
2023/09/01 11:41:08;;;;;;;2.42;1.10;;;;;;;;;;5006894;28;20100;-62
2023/09/01 11:43:35;;;;;;;2.25;1.30;;;;;;;;;;5001536;28;20030;-61
2023/09/01 11:46:01;;;;;;;2.92;1.30;;;;;;;;;;4997553;28;20433;-62
2023/09/01 11:48:28;;;;;;;1.90;1.15;;;;;;;;;;5009045;28;20034;-62
2023/09/01 11:50:57;;;;;;;2.85;0.95;;;;;;;;;;4994635;28;20034;-62
2023/09/01 11:53:25;;;;;;;5.18;1.95;;;;;;;;;;5010589;28;20053;-61
2023/09/01 11:55:52;;;;;;;2.53;1.43;;;;;;;;;;5011400;28;20037;-61
2023/09/01 11:58:18;;;;;;;2.20;1.17;;;;;;;;;;5008311;28;20324;-61
2023/09/01 12:00:44;;;;;;;3.80;1.15;;;;;;;;;;5008758;28;20041;-60
2023/09/01 12:03:11;;;;;;;2.40;1.33;;;;;;;;;;5005002;28;20056;-60
2023/09/01 12:05:39;;;;;;;1.95;1.17;;;;;;;;;;5009801;28;20046;-60
2023/09/01 12:08:08;;;;;;;1.98;1.20;;;;;;;;;;4996906;28;20026;-60
2023/09/01 12:10:34;;;;;;;;;;;;;;;;;;5018697;28;20053;-60
2023/09/01 12:13:03;;;;;;;5.82;2.38;;;;;;;;;;5017800;28;19912;-60
2023/09/01 12:15:30;;;;;;;2.63;1.35;;;;;;;;;;5016667;28;20048;-60
2023/09/01 12:17:56;;;;;;;2.55;1.08;;;;;;;;;;5015764;28;20042;-60
2023/09/01 12:20:22;;;;;;;2.40;1.25;;;;;;;;;;5001679;28;20409;-61
2023/09/01 12:22:48;;;;;;;2.42;1.10;;;;;;;;;;5021871;28;20108;-61
2023/09/01 12:25:14;;;;;;;2.50;1.13;;;;;;;;;;5016790;28;20131;-61
2023/09/01 12:27:40;;;;;;;3.10;1.10;;;;;;;;;;5009751;28;20036;-61
2023/09/01 12:30:07;;;;;;;5.88;1.15;;;;;;;;;;5000686;28;20045;-60
2023/09/01 12:32:33;;;;;;;2.60;1.25;;;;;;;;;;5002937;28;20057;-61
2023/09/01 12:34:59;;;;;;;2.25;1.10;;;;;;;;;;5009347;28;20057;-61
2023/09/01 12:37:25;;;;;;;4.55;1.50;;;;;;;;;;5011105;28;20042;-61
2023/09/01 12:39:51;;;;;;;1.77;1.10;;;;;;;;;;5004167;28;20038;-61
2023/09/01 12:42:17;;;;;;;2.47;1.20;;;;;;;;;;5010832;28;20382;-61
2023/09/01 12:44:43;;;;;;;2.00;1.20;;;;;;;;;;5009970;28;20042;-60
2023/09/01 12:47:09;;;;;;;2.30;1.00;;;;;;;;;;5004884;28;20397;-61
2023/09/01 12:49:36;;;;;;;1.52;1.20;;;;;;;;;;5011817;28;20034;-60
2023/09/01 12:52:03;;;;;;;5.20;1.02;;;;;;;;;;5007857;28;20511;-61
2023/09/01 12:54:29;;;;;;;3.72;1.25;;;;;;;;;;5013058;28;20061;-61
2023/09/01 12:56:55;;;;;;;1.48;1.00;;;;;;;;;;5009385;28;20069;-61
2023/09/01 12:59:21;;;;;;;4.03;1.17;;;;;;;;;;5012691;28;20045;-61
2023/09/01 13:01:47;;;;;;;3.78;1.20;;;;;;;;;;5017220;28;20041;-60
2023/09/01 13:04:13;;;;;;;4.90;1.17;;;;;;;;;;4996392;28;20041;-61
2023/09/01 13:06:39;;;;;;;2.38;1.10;;;;;;;;;;5009709;28;20037;-63
2023/09/01 13:09:07;;;;;;;1.45;1.10;;;;;;;;;;5005555;28;20057;-61
2023/09/01 13:11:33;;;;;;;2.00;1.00;;;;;;;;;;5016635;28;20233;-61
2023/09/01 13:13:59;;;;;;;1.85;1.10;;;;;;;;;;4996279;28;20045;-61
2023/09/01 13:16:29;;;;;;;2.42;1.10;;;;;;;;;;5016348;28;20038;-61
2023/09/01 13:18:56;;;;;;;1.27;1.00;;;;;;;;;;5015612;28;20032;-61
2023/09/01 13:21:22;;;;;;;1.42;1.10;;;;;;;;;;5001541;28;20037;-60
2023/09/01 13:23:49;;;;;;;2.08;1.10;;;;;;;;;;5021083;28;20045;-61
2023/09/01 13:26:16;;;;;;;1.92;0.88;;;;;;;;;;5016139;28;20038;-61
2023/09/01 13:28:42;;;;;;;1.90;1.10;;;;;;;;;;5013023;28;20544;-61
2023/09/01 13:31:08;;;;;;;2.70;1.20;;;;;;;;;;5010295;28;20038;-60
2023/09/01 13:33:39;;;;;;;1.75;0.98;;;;;;;;;;5007427;28;20026;-61
2023/09/01 13:36:05;;;;;;;1.92;0.80;;;;;;;;;;5006555;28;20057;-62
2023/09/01 13:38:31;;;;;;;1.80;1.23;;;;;;;;;;4992002;28;20497;-61
2023/09/01 13:40:57;;;;;;;2.03;1.20;;;;;;;;;;5004681;28;20057;-61
2023/09/01 13:43:25;;;;;;;1.77;0.88;;;;;;;;;;5005948;28;20502;-60
2023/09/01 13:45:54;;;;;;;6.43;1.40;;;;;;;;;;4992899;28;20041;-62
2023/09/01 13:48:20;;;;;;;2.38;0.90;;;;;;;;;;5008329;28;20536;-62
2023/09/01 13:50:46;;;;;;;2.03;0.80;;;;;;;;;;5013296;28;20038;-61
2023/09/01 13:53:12;;;;;;;1.65;1.20;;;;;;;;;;4995581;28;20036;-61
2023/09/01 13:55:38;;;;;;;1.50;0.98;;;;;;;;;;5013068;28;20404;-61
2023/09/01 13:58:05;;;;;;;1.65;0.90;;;;;;;;;;5002870;28;20057;-61
2023/09/01 14:00:31;;;;;;;1.40;0.90;;;;;;;;;;5001174;28;20046;-62
2023/09/01 14:02:57;;;;;;;1.42;0.77;;;;;;;;;;5016564;28;20025;-61
2023/09/01 14:05:23;;;;;;;1.50;0.98;;;;;;;;;;5013867;28;20045;-61
2023/09/01 14:07:49;;;;;;;1.38;0.95;;;;;;;;;;4995770;28;20040;-59
2023/09/01 14:10:15;;;;;;;2.28;1.23;;;;;;;;;;5013386;28;20414;-61
2023/09/01 14:12:41;;;;;;;1.40;0.88;;;;;;;;;;5016870;28;20036;-61
2023/09/01 14:15:08;;;;;;;1.75;0.90;;;;;;;;;;4996443;28;20061;-62
2023/09/01 14:17:34;;;;;;;2.97;0.98;;;;;;;;;;5014316;28;20132;-62
2023/09/01 14:20:00;;;;;;;2.38;0.98;;;;;;;;;;5014176;28;20050;-62
2023/09/01 14:22:26;;;;;;;1.67;0.80;;;;;;;;;;5017723;28;20045;-63
2023/09/01 14:24:52;;;;;;;1.00;0.77;;;;;;;;;;5017914;28;20060;-62
2023/09/01 14:27:18;;;;;;;1.88;1.33;;;;;;;;;;5016366;28;20440;-62
2023/09/01 14:29:45;;;;;;;3.03;0.95;;;;;;;;;;5003749;28;20038;-62
2023/09/01 14:32:12;;;;;;;1.30;1.10;;;;;;;;;;5006444;28;20033;-62
2023/09/01 14:34:38;;;;;;;1.75;0.98;;;;;;;;;;4990674;28;20054;-61
2023/09/01 14:37:04;;;;;;;2.40;0.90;;;;;;;;;;5009104;28;20045;-62
2023/09/01 14:39:30;;;;;;;1.60;1.00;;;;;;;;;;5009157;28;20516;-62
2023/09/01 14:41:56;;;;;;;2.95;1.17;;;;;;;;;;5010980;28;20046;-62
2023/09/01 14:44:22;;;;;;;2.67;1.20;;;;;;;;;;5007841;28;20056;-63
2023/09/01 14:46:48;;;;;;;1.70;1.40;;;;;;;;;;5010428;28;20049;-62